VLG6CR LEPA-LEBL
Flight info
| Callsign | VLG6CR |
|---|---|
| Flight time | 0h 29m |
| Altitude | 18000 |
| Route | ESPOR L2 NEPAL |
| Aircraft | A20N/M-SDE2E3FGHIRWXY/LB1 |
Departure
| Time | 2026-05-08 07:44 |
|---|---|
| Airport | Palma de Mallorca Airport (LEPA) |
Arrival
| Time | 2026-05-08 08:14 |
|---|---|
| Airport | Josep Tarradellas Barcelona-El Prat Airport (LEBL) |
| Time | Latitude | Longitude | Altitude | Speed | Heading |
|---|---|---|---|---|---|
| 2026-05-08 06:51 | 39.54794 | 2.73336 | 38 ft | 0 kts | 266° |
| 2026-05-08 07:35 | 39.54794 | 2.73349 | 36 ft | 3 kts | 272° |
| 2026-05-08 07:35 | 39.54794 | 2.73372 | 36 ft | 3 kts | 276° |
| 2026-05-08 07:35 | 39.54791 | 2.73395 | 34 ft | 3 kts | 284° |
| 2026-05-08 07:36 | 39.54785 | 2.73416 | 37 ft | 3 kts | 301° |
| 2026-05-08 07:36 | 39.54773 | 2.73434 | 37 ft | 3 kts | 321° |
| 2026-05-08 07:36 | 39.54759 | 2.73447 | 38 ft | 3 kts | 329° |
| 2026-05-08 07:36 | 39.54743 | 2.73459 | 38 ft | 3 kts | 332° |
| 2026-05-08 07:37 | 39.54726 | 2.73471 | 35 ft | 3 kts | 331° |
| 2026-05-08 07:37 | 39.54717 | 2.73477 | 38 ft | 0 kts | 333° |
| 2026-05-08 07:39 | 39.54722 | 2.73474 | 38 ft | 2 kts | 333° |
| 2026-05-08 07:40 | 39.54748 | 2.73468 | 37 ft | 5 kts | 6° |
| 2026-05-08 07:40 | 39.54773 | 2.73504 | 38 ft | 6 kts | 80° |
| 2026-05-08 07:40 | 39.54743 | 2.73552 | 38 ft | 8 kts | 145° |
| 2026-05-08 07:40 | 39.54684 | 2.73598 | 37 ft | 12 kts | 150° |
| 2026-05-08 07:41 | 39.54601 | 2.73632 | 38 ft | 14 kts | 161° |
| 2026-05-08 07:41 | 39.54529 | 2.73580 | 38 ft | 14 kts | 238° |
| 2026-05-08 07:41 | 39.54472 | 2.73455 | 38 ft | 18 kts | 239° |
| 2026-05-08 07:41 | 39.54402 | 2.73307 | 38 ft | 21 kts | 238° |
| 2026-05-08 07:42 | 39.54321 | 2.73138 | 38 ft | 23 kts | 238° |
| 2026-05-08 07:42 | 39.54226 | 2.73071 | 36 ft | 16 kts | 137° |
| 2026-05-08 07:42 | 39.54213 | 2.73206 | 38 ft | 16 kts | 92° |
| 2026-05-08 07:42 | 39.54212 | 2.73250 | 38 ft | 2 kts | 90° |
| 2026-05-08 07:43 | 39.54212 | 2.73281 | 38 ft | 6 kts | 90° |
| 2026-05-08 07:43 | 39.54218 | 2.73365 | 36 ft | 12 kts | 56° |
| 2026-05-08 07:43 | 39.54314 | 2.73558 | 37 ft | 60 kts | 59° |
| 2026-05-08 07:43 | 39.54678 | 2.74331 | 38 ft | 137 kts | 59° |
| 2026-05-08 07:44 | 39.55208 | 2.75472 | 591 ft | 152 kts | 59° |
| 2026-05-08 07:44 | 39.55778 | 2.76713 | 1302 ft | 167 kts | 60° |
| 2026-05-08 07:44 | 39.56382 | 2.78004 | 2280 ft | 168 kts | 61° |
| 2026-05-08 07:44 | 39.57047 | 2.79355 | 2845 ft | 190 kts | 59° |
| 2026-05-08 07:45 | 39.57835 | 2.80873 | 3242 ft | 217 kts | 59° |
| 2026-05-08 07:45 | 39.58745 | 2.82581 | 3755 ft | 238 kts | 58° |
| 2026-05-08 07:45 | 39.59696 | 2.84401 | 4613 ft | 249 kts | 58° |
| 2026-05-08 07:45 | 39.60668 | 2.86286 | 5599 ft | 251 kts | 58° |
| 2026-05-08 07:46 | 39.61701 | 2.88144 | 6627 ft | 256 kts | 54° |
| 2026-05-08 07:46 | 39.62806 | 2.89909 | 7739 ft | 254 kts | 53° |
| 2026-05-08 07:46 | 39.64088 | 2.91447 | 8872 ft | 253 kts | 31° |
| 2026-05-08 07:46 | 39.65811 | 2.92161 | 9481 ft | 274 kts | 4° |
| 2026-05-08 07:47 | 39.67769 | 2.91790 | 9886 ft | 295 kts | 336° |
| 2026-05-08 07:47 | 39.69487 | 2.90280 | 10474 ft | 306 kts | 312° |
| 2026-05-08 07:47 | 39.70852 | 2.88049 | 10847 ft | 326 kts | 304° |
| 2026-05-08 07:47 | 39.72218 | 2.85599 | 11386 ft | 339 kts | 306° |
| 2026-05-08 07:48 | 39.73698 | 2.83205 | 12316 ft | 341 kts | 309° |
| 2026-05-08 07:48 | 39.75273 | 2.80896 | 13244 ft | 342 kts | 311° |
| 2026-05-08 07:48 | 39.76353 | 2.79397 | 13830 ft | 344 kts | 311° |
| 2026-05-08 07:48 | 39.78024 | 2.77147 | 14565 ft | 349 kts | 311° |
| 2026-05-08 07:49 | 39.79735 | 2.74878 | 15327 ft | 352 kts | 311° |
| 2026-05-08 07:49 | 39.81449 | 2.72611 | 16119 ft | 353 kts | 311° |
| 2026-05-08 07:49 | 39.83176 | 2.70323 | 16858 ft | 356 kts | 311° |
| 2026-05-08 07:49 | 39.84918 | 2.68006 | 17454 ft | 360 kts | 310° |
| 2026-05-08 07:50 | 39.86671 | 2.65671 | 17571 ft | 360 kts | 310° |
| 2026-05-08 07:50 | 39.88418 | 2.63340 | 17680 ft | 360 kts | 310° |
| 2026-05-08 07:50 | 39.90168 | 2.61001 | 17793 ft | 360 kts | 310° |
| 2026-05-08 07:50 | 39.91918 | 2.58661 | 17910 ft | 361 kts | 310° |
| 2026-05-08 07:51 | 39.93668 | 2.56318 | 17997 ft | 362 kts | 310° |
| 2026-05-08 07:51 | 39.95426 | 2.53962 | 17994 ft | 362 kts | 310° |
| 2026-05-08 07:51 | 39.97177 | 2.51614 | 17991 ft | 361 kts | 310° |
| 2026-05-08 07:51 | 39.98931 | 2.49261 | 17990 ft | 361 kts | 310° |
| 2026-05-08 07:52 | 40.00683 | 2.46907 | 18007 ft | 362 kts | 310° |
| 2026-05-08 07:52 | 40.02438 | 2.44547 | 17992 ft | 363 kts | 310° |
| 2026-05-08 07:52 | 40.04190 | 2.42189 | 17995 ft | 362 kts | 310° |
| 2026-05-08 07:52 | 40.05945 | 2.39828 | 17995 ft | 362 kts | 310° |
| 2026-05-08 07:53 | 40.07700 | 2.37465 | 17991 ft | 362 kts | 310° |
| 2026-05-08 07:53 | 40.09431 | 2.35131 | 17995 ft | 362 kts | 310° |
| 2026-05-08 07:53 | 40.11185 | 2.32765 | 17992 ft | 362 kts | 310° |
| 2026-05-08 07:53 | 40.12939 | 2.30396 | 17999 ft | 362 kts | 310° |
| 2026-05-08 07:54 | 40.14693 | 2.28027 | 17998 ft | 363 kts | 310° |
| 2026-05-08 07:54 | 40.16455 | 2.25643 | 17992 ft | 363 kts | 310° |
| 2026-05-08 07:54 | 40.18212 | 2.23265 | 18002 ft | 363 kts | 310° |
| 2026-05-08 07:54 | 40.19967 | 2.20887 | 18004 ft | 363 kts | 310° |
| 2026-05-08 07:55 | 40.21726 | 2.18502 | 18003 ft | 363 kts | 310° |
| 2026-05-08 07:55 | 40.23477 | 2.16127 | 18013 ft | 363 kts | 310° |
| 2026-05-08 07:55 | 40.25238 | 2.13731 | 18004 ft | 366 kts | 310° |
| 2026-05-08 07:55 | 40.27066 | 2.11412 | 18007 ft | 368 kts | 317° |
| 2026-05-08 07:56 | 40.29197 | 2.09527 | 18003 ft | 372 kts | 328° |
| 2026-05-08 07:56 | 40.31591 | 2.08182 | 18004 ft | 377 kts | 338° |
| 2026-05-08 07:56 | 40.34099 | 2.07158 | 18008 ft | 377 kts | 339° |
| 2026-05-08 07:56 | 40.36605 | 2.06124 | 18006 ft | 377 kts | 338° |
| 2026-05-08 07:57 | 40.39074 | 2.05099 | 18007 ft | 377 kts | 338° |
| 2026-05-08 07:57 | 40.41575 | 2.04058 | 18006 ft | 377 kts | 338° |
| 2026-05-08 07:57 | 40.44079 | 2.03015 | 18010 ft | 377 kts | 338° |
| 2026-05-08 07:57 | 40.46578 | 2.01973 | 18015 ft | 377 kts | 339° |
| 2026-05-08 07:58 | 40.49075 | 2.00932 | 17946 ft | 375 kts | 339° |
| 2026-05-08 07:58 | 40.51560 | 1.99896 | 17593 ft | 374 kts | 339° |
| 2026-05-08 07:58 | 40.54035 | 1.98864 | 17098 ft | 372 kts | 339° |
| 2026-05-08 07:58 | 40.56491 | 1.97837 | 16524 ft | 370 kts | 339° |
| 2026-05-08 07:59 | 40.58940 | 1.96812 | 15958 ft | 367 kts | 340° |
| 2026-05-08 07:59 | 40.61366 | 1.95795 | 15422 ft | 365 kts | 340° |
| 2026-05-08 07:59 | 40.63783 | 1.94782 | 14891 ft | 363 kts | 340° |
| 2026-05-08 07:59 | 40.66184 | 1.93776 | 14372 ft | 361 kts | 341° |
| 2026-05-08 08:00 | 40.68659 | 1.93271 | 13816 ft | 362 kts | 0° |
| 2026-05-08 08:00 | 40.71127 | 1.93883 | 13208 ft | 363 kts | 21° |
| 2026-05-08 08:00 | 40.73366 | 1.95370 | 12786 ft | 357 kts | 28° |
| 2026-05-08 08:00 | 40.75538 | 1.96924 | 12201 ft | 356 kts | 28° |
| 2026-05-08 08:01 | 40.77713 | 1.98486 | 11704 ft | 353 kts | 28° |
| 2026-05-08 08:01 | 40.79854 | 2.00024 | 11258 ft | 348 kts | 28° |
| 2026-05-08 08:01 | 40.81984 | 2.01552 | 10730 ft | 347 kts | 29° |
| 2026-05-08 08:01 | 40.84088 | 2.03062 | 10339 ft | 341 kts | 29° |
| 2026-05-08 08:02 | 40.86148 | 2.04540 | 9834 ft | 340 kts | 30° |
| 2026-05-08 08:02 | 40.88217 | 2.06026 | 9331 ft | 337 kts | 29° |
| 2026-05-08 08:02 | 40.90264 | 2.07496 | 8825 ft | 334 kts | 30° |
| 2026-05-08 08:02 | 40.92299 | 2.08959 | 8348 ft | 330 kts | 30° |
| 2026-05-08 08:03 | 40.94294 | 2.10428 | 7875 ft | 326 kts | 31° |
| 2026-05-08 08:03 | 40.96262 | 2.11911 | 7377 ft | 324 kts | 31° |
| 2026-05-08 08:03 | 40.98208 | 2.13388 | 6924 ft | 321 kts | 31° |
| 2026-05-08 08:03 | 41.00137 | 2.14848 | 6453 ft | 318 kts | 31° |
| 2026-05-08 08:04 | 41.02050 | 2.16293 | 5973 ft | 315 kts | 31° |
| 2026-05-08 08:04 | 41.03948 | 2.17726 | 5496 ft | 312 kts | 31° |
| 2026-05-08 08:04 | 41.05826 | 2.19141 | 5036 ft | 309 kts | 31° |
| 2026-05-08 08:04 | 41.07689 | 2.20546 | 4562 ft | 307 kts | 31° |
| 2026-05-08 08:05 | 41.09522 | 2.21930 | 4296 ft | 299 kts | 31° |
| 2026-05-08 08:05 | 41.11364 | 2.23322 | 4201 ft | 307 kts | 31° |
| 2026-05-08 08:05 | 41.13215 | 2.24724 | 4104 ft | 306 kts | 31° |
| 2026-05-08 08:05 | 41.15057 | 2.26117 | 4002 ft | 304 kts | 31° |
| 2026-05-08 08:06 | 41.16853 | 2.27601 | 3993 ft | 304 kts | 39° |
| 2026-05-08 08:06 | 41.18370 | 2.29542 | 3996 ft | 303 kts | 52° |
| 2026-05-08 08:06 | 41.19538 | 2.31805 | 3997 ft | 299 kts | 58° |
| 2026-05-08 08:06 | 41.20646 | 2.34091 | 3996 ft | 282 kts | 58° |
| 2026-05-08 08:07 | 41.21670 | 2.36180 | 3966 ft | 265 kts | 58° |
| 2026-05-08 08:07 | 41.22689 | 2.38173 | 3739 ft | 258 kts | 50° |
| 2026-05-08 08:07 | 41.24136 | 2.39545 | 3446 ft | 256 kts | 21° |
| 2026-05-08 08:07 | 41.25864 | 2.39775 | 3335 ft | 248 kts | 351° |
| 2026-05-08 08:08 | 41.27447 | 2.38981 | 3250 ft | 240 kts | 335° |
| 2026-05-08 08:08 | 41.28932 | 2.38039 | 3063 ft | 234 kts | 336° |
| 2026-05-08 08:08 | 41.30402 | 2.37131 | 2824 ft | 230 kts | 337° |
| 2026-05-08 08:08 | 41.31820 | 2.36272 | 2732 ft | 218 kts | 338° |
| 2026-05-08 08:09 | 41.33170 | 2.35466 | 2624 ft | 207 kts | 337° |
| 2026-05-08 08:09 | 41.34458 | 2.34699 | 2474 ft | 200 kts | 337° |
| 2026-05-08 08:09 | 41.35686 | 2.33965 | 2304 ft | 183 kts | 337° |
| 2026-05-08 08:09 | 41.36862 | 2.33196 | 2294 ft | 200 kts | 324° |
| 2026-05-08 08:10 | 41.37673 | 2.31714 | 2306 ft | 201 kts | 287° |
| 2026-05-08 08:10 | 41.37656 | 2.29886 | 2307 ft | 201 kts | 251° |
| 2026-05-08 08:10 | 41.37070 | 2.28202 | 2322 ft | 201 kts | 239° |
| 2026-05-08 08:10 | 41.36359 | 2.26608 | 2326 ft | 201 kts | 238° |
| 2026-05-08 08:11 | 41.35669 | 2.24996 | 2321 ft | 200 kts | 240° |
| 2026-05-08 08:11 | 41.35029 | 2.23354 | 2258 ft | 201 kts | 242° |
| 2026-05-08 08:11 | 41.34429 | 2.21684 | 1907 ft | 199 kts | 244° |
| 2026-05-08 08:11 | 41.33858 | 2.20013 | 1635 ft | 199 kts | 244° |
| 2026-05-08 08:12 | 41.33294 | 2.18361 | 1350 ft | 190 kts | 244° |
| 2026-05-08 08:12 | 41.32773 | 2.16834 | 1106 ft | 172 kts | 245° |
| 2026-05-08 08:12 | 41.32298 | 2.15443 | 882 ft | 159 kts | 244° |
| 2026-05-08 08:12 | 41.31843 | 2.14108 | 688 ft | 156 kts | 245° |
| 2026-05-08 08:13 | 41.31405 | 2.12823 | 476 ft | 152 kts | 246° |
| 2026-05-08 08:13 | 41.30968 | 2.11541 | 239 ft | 151 kts | 247° |
| 2026-05-08 08:13 | 41.30539 | 2.10271 | 49 ft | 151 kts | 246° |
| 2026-05-08 08:13 | 41.30145 | 2.09122 | 14 ft | 102 kts | 246° |
| 2026-05-08 08:14 | 41.29947 | 2.08544 | 21 ft | 49 kts | 245° |
| 2026-05-08 08:14 | 41.29810 | 2.08144 | 17 ft | 46 kts | 245° |
| 2026-05-08 08:14 | 41.29751 | 2.07885 | 16 ft | 27 kts | 265° |
| 2026-05-08 08:14 | 41.29750 | 2.07790 | 16 ft | 2 kts | 273° |
| 2026-05-08 08:15 | 41.29751 | 2.07755 | 17 ft | 6 kts | 272° |
| 2026-05-08 08:15 | 41.29756 | 2.07688 | 17 ft | 9 kts | 282° |
| 2026-05-08 08:15 | 41.29801 | 2.07615 | 17 ft | 12 kts | 329° |
| 2026-05-08 08:15 | 41.29826 | 2.07593 | 17 ft | 5 kts | 325° |
| 2026-05-08 08:16 | 41.29838 | 2.07513 | 19 ft | 12 kts | 255° |
| 2026-05-08 08:16 | 41.29800 | 2.07395 | 18 ft | 16 kts | 245° |
| 2026-05-08 08:16 | 41.29765 | 2.07295 | 20 ft | 0 kts | 244° |
| 2026-05-08 08:16 | 41.29762 | 2.07285 | 19 ft | 3 kts | 244° |
| 2026-05-08 08:17 | 41.29755 | 2.07244 | 17 ft | 6 kts | 276° |
| 2026-05-08 08:17 | 41.29788 | 2.07201 | 17 ft | 8 kts | 334° |
| 2026-05-08 08:17 | 41.29851 | 2.07163 | 17 ft | 11 kts | 335° |
| 2026-05-08 08:17 | 41.29912 | 2.07124 | 20 ft | 7 kts | 332° |
| 2026-05-08 08:18 | 41.29932 | 2.07082 | 18 ft | 5 kts | 262° |
| 2026-05-08 08:18 | 41.29915 | 2.07021 | 18 ft | 9 kts | 246° |
| 2026-05-08 08:18 | 41.29885 | 2.06951 | 19 ft | 7 kts | 220° |
| 2026-05-08 08:18 | 41.29866 | 2.06948 | 18 ft | 4 kts | 171° |
| 2026-05-08 08:19 | 41.29836 | 2.06969 | 18 ft | 3 kts | 155° |
| 2026-05-08 08:19 | 41.29826 | 2.06975 | 18 ft | 0 kts | 156° |